Time;durP1;ratioP1;P1;durP2;ratioP2;P2;SDS_P1;SDS_P2;PMS_P1;PMS_P2;Temp;Humidity;BMP_temperature;BMP_pressure;BME280_temperature;BME280_humidity;BME280_pressure;Samples;Min_cycle;Max_cycle;Signal;HPM_P1;HPM_P2
2022/01/02 00:01:13;;;;;;;75.60;37.83;;;;;;;;;;5065321;28;20181;-60
2022/01/02 00:03:39;;;;;;;82.63;40.50;;;;;;;;;;5091713;28;20103;-59
2022/01/02 00:06:07;;;;;;;71.57;36.70;;;;;;;;;;5092268;28;20036;-59
2022/01/02 00:08:39;;;;;;;79.85;39.58;;;;;;;;;;5074369;28;20028;-61
2022/01/02 00:11:06;;;;;;;74.55;37.05;;;;;;;;;;5092274;28;20032;-61
2022/01/02 00:13:35;;;;;;;69.63;37.88;;;;;;;;;;5073252;28;20032;-62
2022/01/02 00:16:06;;;;;;;73.53;37.67;;;;;;;;;;5087316;28;20067;-60
2022/01/02 00:18:37;;;;;;;75.00;37.13;;;;;;;;;;5065603;28;20032;-61
2022/01/02 00:21:07;;;;;;;72.43;39.17;;;;;;;;;;5070856;28;20075;-60
2022/01/02 00:23:41;;;;;;;73.03;37.90;;;;;;;;;;5068366;28;20698;-61
2022/01/02 00:26:15;;;;;;;74.15;37.95;;;;;;;;;;5062094;28;20379;-61
2022/01/02 00:28:41;;;;;;;73.15;37.88;;;;;;;;;;5068708;28;20123;-60
2022/01/02 00:31:06;;;;;;;69.13;36.30;;;;;;;;;;5090286;28;20031;-60
2022/01/02 00:33:32;;;;;;;63.15;35.80;;;;;;;;;;5090266;28;20059;-60
2022/01/02 00:35:57;;;;;;;67.00;37.92;;;;;;;;;;5072747;28;20036;-60
2022/01/02 00:38:23;;;;;;;72.97;37.78;;;;;;;;;;5090891;28;20086;-61
2022/01/02 00:40:49;;;;;;;69.65;39.00;;;;;;;;;;5072445;28;20157;-61
2022/01/02 00:43:21;;;;;;;70.47;37.20;;;;;;;;;;5072981;28;20550;-61
2022/01/02 00:45:49;;;;;;;67.57;38.63;;;;;;;;;;5056204;28;20028;-61
2022/01/02 00:48:19;;;;;;;71.82;38.53;;;;;;;;;;5056355;28;20031;-61
2022/01/02 00:51:10;;;;;;;66.95;36.97;;;;;;;;;;5090909;28;20521;-60
2022/01/02 00:53:36;;;;;;;70.65;36.33;;;;;;;;;;5067674;28;20053;-61
2022/01/02 00:56:03;;;;;;;67.47;35.90;;;;;;;;;;5071579;28;20138;-60
2022/01/02 00:58:44;;;;;;;69.07;36.47;;;;;;;;;;5071473;28;20178;-60
2022/01/02 01:01:12;;;;;;;75.07;36.88;;;;;;;;;;5053277;28;20036;-60
2022/01/02 01:03:39;;;;;;;70.20;35.92;;;;;;;;;;5070137;28;20032;-60
2022/01/02 01:06:05;;;;;;;63.90;36.65;;;;;;;;;;5070131;28;20040;-60
2022/01/02 01:08:31;;;;;;;68.07;36.25;;;;;;;;;;5087060;28;20113;-60
2022/01/02 01:10:58;;;;;;;61.63;35.30;;;;;;;;;;5070177;28;20047;-60
2022/01/02 01:13:24;;;;;;;63.80;36.03;;;;;;;;;;5071262;28;20483;-60
2022/01/02 01:15:49;;;;;;;65.07;35.50;;;;;;;;;;5071156;28;20033;-60
2022/01/02 01:18:15;;;;;;;70.07;36.53;;;;;;;;;;5053268;28;20020;-60
2022/01/02 01:20:42;;;;;;;63.30;35.35;;;;;;;;;;5071293;28;20031;-60
2022/01/02 01:23:11;;;;;;;71.72;37.22;;;;;;;;;;5053304;28;20051;-62
2022/01/02 01:25:39;;;;;;;67.93;36.50;;;;;;;;;;5069796;28;20044;-60
2022/01/02 01:28:04;;;;;;;64.25;35.58;;;;;;;;;;5069793;28;20036;-60
2022/01/02 01:30:30;;;;;;;63.17;36.25;;;;;;;;;;5069620;28;20048;-61
2022/01/02 01:32:56;;;;;;;62.13;36.65;;;;;;;;;;5071111;28;20036;-60
2022/01/02 01:35:22;;;;;;;58.47;34.75;;;;;;;;;;5069767;28;20063;-61
2022/01/02 01:37:48;;;;;;;61.45;35.47;;;;;;;;;;5069788;28;20396;-60
2022/01/02 01:40:15;;;;;;;55.45;35.08;;;;;;;;;;5069680;28;20499;-59
2022/01/02 01:42:44;;;;;;;54.15;33.08;;;;;;;;;;5069678;28;20075;-60
2022/01/02 01:45:34;;;;;;;61.75;34.92;;;;;;;;;;5071913;28;20040;-60
2022/01/02 01:48:04;;;;;;;58.08;34.50;;;;;;;;;;5074427;28;20060;-62
2022/01/02 01:50:38;;;;;;;57.83;35.03;;;;;;;;;;5056700;28;20028;-61
2022/01/02 01:53:05;;;;;;;62.10;36.30;;;;;;;;;;5073045;28;20372;-60
2022/01/02 01:55:32;;;;;;;62.92;34.83;;;;;;;;;;5073001;28;20392;-63
2022/01/02 01:57:59;;;;;;;58.40;36.17;;;;;;;;;;5056286;28;20059;-60
2022/01/02 02:00:26;;;;;;;55.45;35.47;;;;;;;;;;5072913;28;20068;-60
2022/01/02 02:02:57;;;;;;;54.13;35.65;;;;;;;;;;5073194;28;20032;-60
2022/01/02 02:05:23;;;;;;;58.67;34.80;;;;;;;;;;5072978;28;20048;-60
2022/01/02 02:07:50;;;;;;;55.78;35.53;;;;;;;;;;5072907;28;20086;-61
2022/01/02 02:10:35;;;;;;;56.80;34.25;;;;;;;;;;5089492;28;20044;-59
2022/01/02 02:13:06;;;;;;;57.05;35.15;;;;;;;;;;5089716;28;20039;-62
2022/01/02 02:15:36;;;;;;;50.78;32.92;;;;;;;;;;5056819;28;20048;-61
2022/01/02 02:18:01;;;;;;;54.50;32.95;;;;;;;;;;5072861;28;20029;-60
2022/01/02 02:20:29;;;;;;;57.88;34.95;;;;;;;;;;5073916;28;20086;-60
2022/01/02 02:22:57;;;;;;;58.63;34.80;;;;;;;;;;5055931;28;20487;-60
2022/01/02 02:25:24;;;;;;;59.25;35.50;;;;;;;;;;5072634;28;20503;-60
2022/01/02 02:27:51;;;;;;;57.33;34.83;;;;;;;;;;5072543;28;20020;-60
2022/01/02 02:30:17;;;;;;;57.03;34.22;;;;;;;;;;5055758;28;20087;-60
2022/01/02 02:32:43;;;;;;;53.92;33.75;;;;;;;;;;5072409;28;20492;-61
2022/01/02 02:35:08;;;;;;;55.70;34.22;;;;;;;;;;5072330;28;20040;-60
2022/01/02 02:37:37;;;;;;;54.60;33.83;;;;;;;;;;5073532;28;20093;-61
2022/01/02 02:40:03;;;;;;;58.22;35.22;;;;;;;;;;5072386;28;20028;-61
2022/01/02 02:42:41;;;;;;;53.05;33.80;;;;;;;;;;5072489;28;20044;-59
2022/01/02 02:48:58;;;;;;;56.92;34.15;;;;;;;;;;5055561;28;20040;-61
2022/01/02 02:50:46;;;;;;;57.13;34.67;;;;;;;;;;5072076;28;20039;-60
2022/01/02 02:53:12;;;;;;;56.38;34.28;;;;;;;;;;5073479;28;20033;-60
2022/01/02 02:55:44;;;;;;;58.38;34.17;;;;;;;;;;5072559;28;20032;-61
2022/01/02 02:58:38;;;;;;;58.75;35.67;;;;;;;;;;5072303;28;20388;-60
2022/01/02 03:00:55;;;;;;;55.80;34.97;;;;;;;;;;5073653;28;20041;-60
2022/01/02 03:03:20;;;;;;;57.83;35.63;;;;;;;;;;5073250;28;20379;-60
2022/01/02 03:05:46;;;;;;;58.22;34.25;;;;;;;;;;5071948;28;20036;-60
2022/01/02 03:08:11;;;;;;;54.50;34.53;;;;;;;;;;5071891;28;20036;-60
2022/01/02 03:10:37;;;;;;;54.70;35.33;;;;;;;;;;5071884;28;20060;-60
2022/01/02 03:13:04;;;;;;;55.92;35.10;;;;;;;;;;5071524;28;20029;-61
2022/01/02 03:15:30;;;;;;;53.13;33.28;;;;;;;;;;5072230;28;20036;-61
2022/01/02 03:17:55;;;;;;;53.40;34.40;;;;;;;;;;5071812;28;20020;-61
2022/01/02 03:20:21;;;;;;;54.58;33.30;;;;;;;;;;5071724;28;20040;-61
2022/01/02 03:22:46;;;;;;;52.88;33.28;;;;;;;;;;5073033;28;20375;-60
2022/01/02 03:25:14;;;;;;;52.97;33.22;;;;;;;;;;5071438;28;20404;-61
2022/01/02 03:27:40;;;;;;;44.38;31.70;;;;;;;;;;5088272;28;20123;-61
2022/01/02 03:30:07;;;;;;;53.50;33.05;;;;;;;;;;5055050;28;20032;-60
2022/01/02 03:32:32;;;;;;;50.40;32.45;;;;;;;;;;5071511;28;20039;-61
2022/01/02 03:34:58;;;;;;;52.88;33.10;;;;;;;;;;5071552;28;20021;-60
2022/01/02 03:37:28;;;;;;;45.65;32.13;;;;;;;;;;5071359;28;20052;-60
2022/01/02 03:39:53;;;;;;;46.80;32.00;;;;;;;;;;5071591;28;20048;-60
2022/01/02 03:42:19;;;;;;;46.88;31.55;;;;;;;;;;5072371;28;20043;-60
2022/01/02 03:44:45;;;;;;;46.08;30.65;;;;;;;;;;5071292;28;20064;-60
2022/01/02 03:47:10;;;;;;;49.05;31.38;;;;;;;;;;5054694;28;20064;-60
2022/01/02 03:49:36;;;;;;;49.38;30.58;;;;;;;;;;5071251;28;20130;-60
2022/01/02 03:52:02;;;;;;;44.60;29.45;;;;;;;;;;5072608;28;20541;-60
2022/01/02 03:54:29;;;;;;;48.10;31.55;;;;;;;;;;5071465;28;20039;-61
2022/01/02 03:56:54;;;;;;;44.00;28.90;;;;;;;;;;5072196;28;20044;-61
2022/01/02 03:59:20;;;;;;;45.40;29.95;;;;;;;;;;5054628;28;20429;-61
2022/01/02 04:01:46;;;;;;;44.17;29.35;;;;;;;;;;5071332;28;20503;-62
2022/01/02 04:04:11;;;;;;;46.22;28.42;;;;;;;;;;5052300;28;20405;-61
2022/01/02 04:06:37;;;;;;;47.03;30.20;;;;;;;;;;5068283;28;20040;-63
2022/01/02 04:09:02;;;;;;;41.97;28.48;;;;;;;;;;5068754;28;20934;-62
2022/01/02 04:11:29;;;;;;;42.85;28.60;;;;;;;;;;5050060;28;20047;-60
2022/01/02 04:13:55;;;;;;;42.55;28.90;;;;;;;;;;5033603;28;20036;-62
2022/01/02 04:16:20;;;;;;;42.97;29.17;;;;;;;;;;5050169;28;20032;-61
2022/01/02 04:18:46;;;;;;;45.63;29.42;;;;;;;;;;5033477;28;20075;-63
2022/01/02 04:21:12;;;;;;;43.53;28.25;;;;;;;;;;5068761;28;20036;-61
2022/01/02 04:23:38;;;;;;;49.90;28.80;;;;;;;;;;5050233;28;20044;-61
2022/01/02 04:26:05;;;;;;;42.50;26.85;;;;;;;;;;5049887;28;20032;-61
2022/01/02 04:28:31;;;;;;;42.63;27.58;;;;;;;;;;5033375;28;20032;-61
2022/01/02 04:30:56;;;;;;;40.85;27.23;;;;;;;;;;5067968;28;20044;-63
2022/01/02 04:33:22;;;;;;;47.83;28.08;;;;;;;;;;5050077;28;20042;-61
2022/01/02 04:35:47;;;;;;;46.88;27.98;;;;;;;;;;5067988;28;20040;-63
2022/01/02 04:38:14;;;;;;;41.83;26.33;;;;;;;;;;5050022;28;20039;-62
2022/01/02 04:40:40;;;;;;;47.00;27.50;;;;;;;;;;5049988;28;20044;-60
2022/01/02 04:43:06;;;;;;;45.05;27.08;;;;;;;;;;5049996;28;20029;-60
2022/01/02 04:45:31;;;;;;;40.90;27.13;;;;;;;;;;5049731;28;20045;-61
2022/01/02 04:47:58;;;;;;;42.25;26.73;;;;;;;;;;5033387;28;20045;-62
2022/01/02 04:50:23;;;;;;;51.25;27.27;;;;;;;;;;5050185;28;20380;-60
2022/01/02 04:52:49;;;;;;;42.13;26.92;;;;;;;;;;5049371;28;20510;-63
2022/01/02 04:55:15;;;;;;;42.80;26.88;;;;;;;;;;5049889;28;20074;-61
2022/01/02 04:57:41;;;;;;;41.83;26.35;;;;;;;;;;5049160;28;20127;-61
2022/01/02 05:00:07;;;;;;;45.47;27.17;;;;;;;;;;5066453;28;20028;-62
2022/01/02 05:02:33;;;;;;;43.22;26.48;;;;;;;;;;5049295;28;20170;-63
2022/01/02 05:04:58;;;;;;;41.85;26.90;;;;;;;;;;5049798;28;20033;-60
2022/01/02 05:07:24;;;;;;;39.38;26.27;;;;;;;;;;5049503;28;20029;-60
2022/01/02 05:09:50;;;;;;;45.47;28.30;;;;;;;;;;5049385;28;20067;-62
2022/01/02 05:12:16;;;;;;;46.65;26.60;;;;;;;;;;5049343;28;20471;-60
2022/01/02 05:14:42;;;;;;;44.53;25.92;;;;;;;;;;5067192;28;20040;-61
2022/01/02 05:17:07;;;;;;;47.20;26.30;;;;;;;;;;5069277;28;20386;-60
2022/01/02 05:19:33;;;;;;;47.65;26.95;;;;;;;;;;5086842;28;20035;-65
2022/01/02 05:21:59;;;;;;;49.72;27.33;;;;;;;;;;5069594;28;20028;-60
2022/01/02 05:24:24;;;;;;;44.03;27.27;;;;;;;;;;5069340;28;20391;-61
2022/01/02 05:26:51;;;;;;;44.33;24.50;;;;;;;;;;5069076;28;20476;-60
2022/01/02 05:29:17;;;;;;;48.25;23.98;;;;;;;;;;5069601;28;20062;-60
2022/01/02 05:31:43;;;;;;;51.20;27.10;;;;;;;;;;5052260;28;20138;-62
2022/01/02 05:34:09;;;;;;;47.53;26.05;;;;;;;;;;5069351;28;20126;-61
2022/01/02 05:36:35;;;;;;;43.63;24.35;;;;;;;;;;5068726;28;20032;-62
2022/01/02 05:39:01;;;;;;;43.10;23.95;;;;;;;;;;5087663;28;20032;-61
2022/01/02 05:41:29;;;;;;;41.65;23.80;;;;;;;;;;5068714;28;20024;-61
2022/01/02 05:43:56;;;;;;;42.40;25.13;;;;;;;;;;5052409;28;20032;-62
2022/01/02 05:46:22;;;;;;;45.88;25.42;;;;;;;;;;5087024;28;20052;-61
2022/01/02 05:48:49;;;;;;;42.65;25.55;;;;;;;;;;5085461;28;20028;-61
2022/01/02 05:51:16;;;;;;;40.40;24.20;;;;;;;;;;5068758;28;20411;-64
2022/01/02 05:53:41;;;;;;;46.80;23.42;;;;;;;;;;5085817;28;20028;-61
2022/01/02 05:56:07;;;;;;;42.72;24.13;;;;;;;;;;5068649;28;20514;-61
2022/01/02 05:58:34;;;;;;;45.10;23.38;;;;;;;;;;5068629;28;20035;-60
2022/01/02 06:01:00;;;;;;;43.90;23.52;;;;;;;;;;5068845;28;20123;-62
2022/01/02 06:03:26;;;;;;;46.10;25.40;;;;;;;;;;5069205;28;20081;-62
2022/01/02 06:05:51;;;;;;;40.05;23.35;;;;;;;;;;5087248;28;20048;-60
2022/01/02 06:08:16;;;;;;;40.05;22.65;;;;;;;;;;5086880;28;20119;-61
2022/01/02 06:10:42;;;;;;;38.83;23.05;;;;;;;;;;5086685;28;20042;-61
2022/01/02 06:13:08;;;;;;;43.25;23.95;;;;;;;;;;5069126;28;20073;-60
2022/01/02 06:15:34;;;;;;;40.00;22.08;;;;;;;;;;5069075;28;20078;-61
2022/01/02 06:18:00;;;;;;;41.47;23.23;;;;;;;;;;5068603;28;20036;-66
2022/01/02 06:20:26;;;;;;;42.13;22.17;;;;;;;;;;5068866;28;20131;-60
2022/01/02 06:22:53;;;;;;;39.42;22.55;;;;;;;;;;5086602;28;20024;-61
2022/01/02 06:25:19;;;;;;;42.33;20.63;;;;;;;;;;5086432;28;20076;-62
2022/01/02 06:27:45;;;;;;;40.65;20.55;;;;;;;;;;5051798;28;20036;-61
2022/01/02 06:30:10;;;;;;;43.25;20.33;;;;;;;;;;5068564;28;20035;-61
2022/01/02 06:32:37;;;;;;;38.10;20.35;;;;;;;;;;5088380;28;20032;-60
2022/01/02 06:35:04;;;;;;;40.65;20.33;;;;;;;;;;5071893;28;20042;-60
2022/01/02 06:37:31;;;;;;;39.63;20.23;;;;;;;;;;5090047;28;20122;-60
2022/01/02 06:39:56;;;;;;;40.47;19.67;;;;;;;;;;5072052;28;20554;-59
2022/01/02 06:42:23;;;;;;;34.28;18.48;;;;;;;;;;5071657;28;20082;-60
2022/01/02 06:44:49;;;;;;;34.95;17.63;;;;;;;;;;5089623;28;20040;-61
2022/01/02 06:47:14;;;;;;;36.70;19.20;;;;;;;;;;5071511;28;20020;-60
2022/01/02 06:49:41;;;;;;;35.25;18.48;;;;;;;;;;5071507;28;20044;-65
2022/01/02 06:52:07;;;;;;;32.78;18.02;;;;;;;;;;5088473;28;20467;-60
2022/01/02 06:54:32;;;;;;;36.88;18.58;;;;;;;;;;5071091;28;20119;-62
2022/01/02 06:56:58;;;;;;;36.42;17.02;;;;;;;;;;5071934;28;20142;-60
2022/01/02 06:59:23;;;;;;;32.70;17.80;;;;;;;;;;5089765;28;20500;-62
2022/01/02 07:01:49;;;;;;;32.28;17.30;;;;;;;;;;5071494;28;20040;-60
2022/01/02 07:04:15;;;;;;;30.65;17.20;;;;;;;;;;5071375;28;20077;-61
2022/01/02 07:06:42;;;;;;;31.13;17.25;;;;;;;;;;5071184;28;20256;-63
2022/01/02 07:09:07;;;;;;;31.67;17.75;;;;;;;;;;5054908;28;20563;-60
2022/01/02 07:11:33;;;;;;;31.10;18.13;;;;;;;;;;5071239;28;20028;-61
2022/01/02 07:13:58;;;;;;;30.65;17.13;;;;;;;;;;5089568;28;20024;-60
2022/01/02 07:16:24;;;;;;;30.02;17.30;;;;;;;;;;5089852;28;20040;-62
2022/01/02 07:18:49;;;;;;;31.83;16.70;;;;;;;;;;5089367;28;20032;-60
2022/01/02 07:21:17;;;;;;;29.40;17.35;;;;;;;;;;5090164;28;20039;-60
2022/01/02 07:23:42;;;;;;;28.15;17.27;;;;;;;;;;5090184;28;20044;-60
2022/01/02 07:26:07;;;;;;;33.05;17.85;;;;;;;;;;5090082;28;20093;-61
2022/01/02 07:28:33;;;;;;;30.83;17.58;;;;;;;;;;5072286;28;20143;-64
2022/01/02 07:30:59;;;;;;;37.05;18.67;;;;;;;;;;5072034;28;20024;-60
2022/01/02 07:33:26;;;;;;;33.67;18.77;;;;;;;;;;5072246;28;20472;-60
2022/01/02 07:35:51;;;;;;;38.58;20.10;;;;;;;;;;5071986;28;20085;-59
2022/01/02 07:38:17;;;;;;;34.63;19.95;;;;;;;;;;5090000;28;20040;-59
2022/01/02 07:40:42;;;;;;;35.65;21.27;;;;;;;;;;5089624;28;20036;-62
2022/01/02 07:43:07;;;;;;;32.83;19.27;;;;;;;;;;5071218;28;20510;-60
2022/01/02 07:45:34;;;;;;;35.88;20.60;;;;;;;;;;5071465;28;20036;-61
2022/01/02 07:47:59;;;;;;;36.42;18.30;;;;;;;;;;5089934;28;20390;-60
2022/01/02 07:50:25;;;;;;;37.13;19.63;;;;;;;;;;5089872;28;20060;-60
2022/01/02 07:52:52;;;;;;;31.08;18.33;;;;;;;;;;5071825;28;20040;-60
2022/01/02 07:55:20;;;;;;;31.38;20.23;;;;;;;;;;5089470;28;20028;-60
2022/01/02 07:57:46;;;;;;;35.28;20.85;;;;;;;;;;5089643;28;20028;-62
2022/01/02 08:00:12;;;;;;;30.40;19.38;;;;;;;;;;5090189;28;20093;-60
2022/01/02 08:02:37;;;;;;;33.25;20.15;;;;;;;;;;5088319;28;20057;-60
2022/01/02 08:05:03;;;;;;;31.20;19.00;;;;;;;;;;5089529;28;20036;-60
2022/01/02 08:07:28;;;;;;;31.17;19.08;;;;;;;;;;5089478;28;20111;-61
2022/01/02 08:09:54;;;;;;;33.10;19.42;;;;;;;;;;5089082;28;20028;-60
2022/01/02 08:12:19;;;;;;;34.63;19.63;;;;;;;;;;5071173;28;20460;-60
2022/01/02 08:14:45;;;;;;;35.65;20.10;;;;;;;;;;5089442;28;20089;-60
2022/01/02 08:17:10;;;;;;;32.53;19.65;;;;;;;;;;5088897;28;20548;-60
2022/01/02 08:19:35;;;;;;;32.08;19.52;;;;;;;;;;5089391;28;20095;-60
2022/01/02 08:22:01;;;;;;;34.78;20.13;;;;;;;;;;5089343;28;20471;-59
2022/01/02 08:24:26;;;;;;;35.10;18.58;;;;;;;;;;5089039;28;20070;-60
2022/01/02 08:26:52;;;;;;;31.35;17.52;;;;;;;;;;5087268;28;20064;-62
2022/01/02 08:29:17;;;;;;;31.65;19.38;;;;;;;;;;5089699;28;20380;-60
2022/01/02 08:31:43;;;;;;;28.35;17.58;;;;;;;;;;5071156;28;20081;-60
2022/01/02 08:34:08;;;;;;;28.15;17.98;;;;;;;;;;5089185;28;20028;-60
2022/01/02 08:36:34;;;;;;;30.30;18.08;;;;;;;;;;5089066;28;20067;-59
2022/01/02 08:38:59;;;;;;;29.70;18.65;;;;;;;;;;5089178;28;20019;-60
2022/01/02 08:41:24;;;;;;;29.55;17.88;;;;;;;;;;5088927;28;20383;-60
2022/01/02 08:43:50;;;;;;;30.80;17.77;;;;;;;;;;5089349;28;20070;-59
2022/01/02 08:46:16;;;;;;;32.78;18.83;;;;;;;;;;5089104;28;20325;-59
2022/01/02 08:48:41;;;;;;;31.40;19.02;;;;;;;;;;5088574;28;20035;-60
2022/01/02 08:51:07;;;;;;;34.92;18.90;;;;;;;;;;5088899;28;20032;-60
2022/01/02 08:53:32;;;;;;;30.10;17.33;;;;;;;;;;5088102;28;20032;-64
2022/01/02 08:55:58;;;;;;;32.15;18.88;;;;;;;;;;5070747;28;20023;-60
2022/01/02 08:58:23;;;;;;;31.25;18.25;;;;;;;;;;5088855;28;20035;-60
2022/01/02 09:00:49;;;;;;;29.35;17.38;;;;;;;;;;5088574;28;20039;-60
2022/01/02 09:03:15;;;;;;;30.00;18.25;;;;;;;;;;5070772;28;20036;-60
2022/01/02 09:05:41;;;;;;;30.48;17.60;;;;;;;;;;5088648;28;20074;-60
2022/01/02 09:08:07;;;;;;;30.58;17.65;;;;;;;;;;5088728;28;20102;-60
2022/01/02 09:10:33;;;;;;;31.88;17.90;;;;;;;;;;5088714;28;20541;-63
2022/01/02 09:12:58;;;;;;;29.42;17.63;;;;;;;;;;5088757;28;20439;-61
2022/01/02 09:15:24;;;;;;;27.85;17.73;;;;;;;;;;5088392;28;20483;-60
2022/01/02 09:17:49;;;;;;;29.10;17.60;;;;;;;;;;5088817;28;20463;-60
2022/01/02 09:20:17;;;;;;;28.83;18.20;;;;;;;;;;5088654;28;20055;-60
2022/01/02 09:22:43;;;;;;;28.88;18.23;;;;;;;;;;5070108;28;20032;-59
2022/01/02 09:25:09;;;;;;;27.92;16.77;;;;;;;;;;5070325;28;20040;-61
2022/01/02 09:27:35;;;;;;;33.00;17.88;;;;;;;;;;5088343;28;20028;-61
2022/01/02 09:30:02;;;;;;;35.33;22.17;;;;;;;;;;5070405;28;20523;-61
2022/01/02 09:32:28;;;;;;;42.17;24.33;;;;;;;;;;5088583;28;20032;-60
2022/01/02 09:34:53;;;;;;;39.83;24.58;;;;;;;;;;5087050;28;20043;-60
2022/01/02 09:37:19;;;;;;;47.88;31.60;;;;;;;;;;5086354;28;20028;-60
2022/01/02 09:39:44;;;;;;;28.83;18.25;;;;;;;;;;5086097;28;20531;-60
2022/01/02 09:42:11;;;;;;;27.90;17.42;;;;;;;;;;5086321;28;20040;-61
2022/01/02 09:44:36;;;;;;;30.13;18.13;;;;;;;;;;5085843;28;20028;-60
2022/01/02 09:47:01;;;;;;;26.27;16.50;;;;;;;;;;5085959;28;20583;-61
2022/01/02 09:49:28;;;;;;;29.45;18.05;;;;;;;;;;5086157;28;20051;-60
2022/01/02 09:51:54;;;;;;;30.48;18.58;;;;;;;;;;5086257;28;20047;-60
2022/01/02 09:54:19;;;;;;;32.13;20.85;;;;;;;;;;5085838;28;20028;-61
2022/01/02 09:56:45;;;;;;;43.30;26.48;;;;;;;;;;5084226;28;20028;-61
2022/01/02 09:59:10;;;;;;;27.58;17.63;;;;;;;;;;5082242;28;20123;-60
2022/01/02 10:01:37;;;;;;;25.38;16.65;;;;;;;;;;5082799;28;20056;-62
2022/01/02 10:04:02;;;;;;;26.45;17.20;;;;;;;;;;5085110;28;20028;-61
2022/01/02 10:06:39;;;;;;;30.17;18.67;;;;;;;;;;5089035;28;20433;-60
2022/01/02 10:09:04;;;;;;;54.75;26.42;;;;;;;;;;5091080;28;20458;-61
2022/01/02 10:11:30;;;;;;;36.05;20.17;;;;;;;;;;5091460;28;20116;-61
2022/01/02 10:14:02;;;;;;;28.92;18.23;;;;;;;;;;5090540;28;20123;-61
2022/01/02 10:16:34;;;;;;;24.30;16.27;;;;;;;;;;5088509;28;20085;-61
2022/01/02 10:19:18;;;;;;;26.00;17.02;;;;;;;;;;5089293;28;20052;-61
2022/01/02 10:21:51;;;;;;;26.35;16.67;;;;;;;;;;5086302;28;20028;-60
2022/01/02 10:24:29;;;;;;;25.98;17.33;;;;;;;;;;5089221;28;20044;-60
2022/01/02 10:27:11;;;;;;;26.58;18.80;;;;;;;;;;5088802;28;20486;-61
2022/01/02 10:29:44;;;;;;;23.45;15.68;;;;;;;;;;5089619;28;20425;-61
2022/01/02 10:32:22;;;;;;;24.10;16.70;;;;;;;;;;5089477;28;20505;-60
2022/01/02 10:34:48;;;;;;;23.25;15.68;;;;;;;;;;5089114;28;20043;-61
2022/01/02 10:37:26;;;;;;;25.15;16.17;;;;;;;;;;5089410;28;20036;-60
2022/01/02 10:39:51;;;;;;;26.52;15.88;;;;;;;;;;5087921;28;20036;-60
2022/01/02 10:42:17;;;;;;;24.42;16.38;;;;;;;;;;5090037;28;20035;-61
2022/01/02 10:44:43;;;;;;;23.38;16.55;;;;;;;;;;5068241;28;20031;-60
2022/01/02 10:47:09;;;;;;;22.98;15.30;;;;;;;;;;5088832;28;20275;-60
2022/01/02 10:49:54;;;;;;;26.08;15.52;;;;;;;;;;5089097;28;20060;-60
2022/01/02 10:52:19;;;;;;;23.33;15.57;;;;;;;;;;5088596;28;20036;-60
2022/01/02 10:54:45;;;;;;;24.70;16.40;;;;;;;;;;5070370;28;20479;-61
2022/01/02 10:57:11;;;;;;;25.60;16.85;;;;;;;;;;5088828;28;20100;-59
2022/01/02 10:59:38;;;;;;;23.75;16.40;;;;;;;;;;5090964;28;20036;-60
2022/01/02 11:02:03;;;;;;;24.73;16.63;;;;;;;;;;5072350;28;20036;-60
2022/01/02 11:04:30;;;;;;;26.75;16.63;;;;;;;;;;5090743;28;20466;-62
2022/01/02 11:06:59;;;;;;;27.83;16.15;;;;;;;;;;5090309;28;20092;-61
2022/01/02 11:09:25;;;;;;;102.63;40.93;;;;;;;;;;5087887;28;20028;-59
2022/01/02 11:11:51;;;;;;;200.45;94.70;;;;;;;;;;5089267;28;20032;-60
2022/01/02 11:14:16;;;;;;;40.15;24.75;;;;;;;;;;5088631;28;20031;-60
2022/01/02 11:16:42;;;;;;;27.10;18.20;;;;;;;;;;5087443;28;20024;-60
2022/01/02 11:19:11;;;;;;;38.28;24.23;;;;;;;;;;5088621;28;20036;-60
2022/01/02 11:21:38;;;;;;;27.15;18.83;;;;;;;;;;5070537;28;20514;-60
2022/01/02 11:24:03;;;;;;;38.60;24.63;;;;;;;;;;5088690;28;20032;-60
2022/01/02 11:26:48;;;;;;;36.72;24.48;;;;;;;;;;5088020;28;20040;-61
2022/01/02 11:29:14;;;;;;;26.23;18.17;;;;;;;;;;5071554;28;20408;-60
2022/01/02 11:31:40;;;;;;;26.83;18.88;;;;;;;;;;5090198;28;20044;-61
2022/01/02 11:34:22;;;;;;;24.77;17.15;;;;;;;;;;5090063;28;20047;-61
2022/01/02 11:36:47;;;;;;;25.60;16.77;;;;;;;;;;5089840;28;20040;-60
2022/01/02 11:39:13;;;;;;;28.55;19.20;;;;;;;;;;5090079;28;20028;-60
2022/01/02 11:41:40;;;;;;;76.03;41.75;;;;;;;;;;5090067;28;20066;-61
2022/01/02 11:44:08;;;;;;;107.65;56.30;;;;;;;;;;5089774;28;20036;-60
2022/01/02 11:46:38;;;;;;;37.55;23.63;;;;;;;;;;5071491;28;20047;-60
2022/01/02 11:49:15;;;;;;;25.33;17.88;;;;;;;;;;5089883;28;20028;-61
2022/01/02 11:51:47;;;;;;;25.75;17.42;;;;;;;;;;5089915;28;20051;-60
2022/01/02 11:54:31;;;;;;;26.85;17.85;;;;;;;;;;5089768;28;20077;-60
2022/01/02 11:56:57;;;;;;;26.20;17.10;;;;;;;;;;5086267;28;20028;-60
2022/01/02 11:59:38;;;;;;;27.25;18.58;;;;;;;;;;5086139;28;20451;-60
2022/01/02 12:02:07;;;;;;;39.97;26.13;;;;;;;;;;5067453;28;20032;-62
2022/01/02 12:04:51;;;;;;;22.33;14.95;;;;;;;;;;5087516;28;20024;-61
2022/01/02 12:07:42;;;;;;;22.63;16.02;;;;;;;;;;5087186;28;20086;-60
2022/01/02 12:10:13;;;;;;;16.10;10.95;;;;;;;;;;5087591;28;20114;-62
2022/01/02 12:12:57;;;;;;;16.65;10.43;;;;;;;;;;5088774;28;20043;-60
2022/01/02 12:15:24;;;;;;;14.18;8.75;;;;;;;;;;5089343;28;20028;-60
2022/01/02 12:18:12;;;;;;;10.95;8.05;;;;;;;;;;5087918;28;20050;-60
2022/01/02 12:20:49;;;;;;;10.88;6.97;;;;;;;;;;5087137;28;20051;-60
2022/01/02 12:23:33;;;;;;;10.35;6.68;;;;;;;;;;5087242;28;20049;-60
2022/01/02 12:26:08;;;;;;;12.65;8.23;;;;;;;;;;5087477;28;20138;-60
2022/01/02 12:28:41;;;;;;;12.95;8.60;;;;;;;;;;5086056;28;20368;-60
2022/01/02 12:31:07;;;;;;;10.38;7.32;;;;;;;;;;5087092;28;20058;-61
2022/01/02 12:33:35;;;;;;;12.80;6.57;;;;;;;;;;5089135;28;20028;-60
2022/01/02 12:36:09;;;;;;;9.60;6.53;;;;;;;;;;5089081;28;20036;-60
2022/01/02 12:38:50;;;;;;;12.98;6.97;;;;;;;;;;5089186;28;20123;-60
2022/01/02 12:41:17;;;;;;;10.48;6.35;;;;;;;;;;5089104;28;20036;-61
2022/01/02 12:43:51;;;;;;;8.73;6.25;;;;;;;;;;5070589;28;20161;-60
2022/01/02 12:46:37;;;;;;;8.32;5.95;;;;;;;;;;5088983;28;20479;-61
2022/01/02 12:49:03;;;;;;;12.07;5.68;;;;;;;;;;5087537;28;20050;-60
2022/01/02 12:51:29;;;;;;;11.15;6.25;;;;;;;;;;5069567;28;20036;-60
2022/01/02 12:53:59;;;;;;;11.10;6.65;;;;;;;;;;5087518;28;20746;-60
2022/01/02 12:56:35;;;;;;;10.73;6.55;;;;;;;;;;5069162;28;20038;-60
2022/01/02 12:59:17;;;;;;;9.13;5.97;;;;;;;;;;5087638;28;20505;-60
2022/01/02 13:01:49;;;;;;;10.75;6.50;;;;;;;;;;5087570;28;20059;-60
2022/01/02 13:04:17;;;;;;;8.57;5.97;;;;;;;;;;5088698;28;20032;-60
2022/01/02 13:06:46;;;;;;;10.15;6.68;;;;;;;;;;5088157;28;20043;-60
2022/01/02 13:09:12;;;;;;;9.80;6.63;;;;;;;;;;5088747;28;20039;-61
2022/01/02 13:11:37;;;;;;;14.90;8.35;;;;;;;;;;5088673;28;20028;-61
2022/01/02 13:14:02;;;;;;;13.65;8.50;;;;;;;;;;5088755;28;20051;-60
2022/01/02 13:16:28;;;;;;;16.08;9.70;;;;;;;;;;5088550;28;20048;-60
2022/01/02 13:18:53;;;;;;;16.52;9.73;;;;;;;;;;5088168;28;20394;-59
2022/01/02 13:21:19;;;;;;;10.63;7.43;;;;;;;;;;5088305;28;20491;-60
2022/01/02 13:23:45;;;;;;;11.80;7.60;;;;;;;;;;5088030;28;20040;-59
2022/01/02 13:26:17;;;;;;;14.70;8.48;;;;;;;;;;5088834;28;20039;-60
2022/01/02 13:28:43;;;;;;;13.05;8.55;;;;;;;;;;5088361;28;20043;-60
2022/01/02 13:31:09;;;;;;;15.27;9.73;;;;;;;;;;5088291;28;20387;-60
2022/01/02 13:33:39;;;;;;;13.20;8.85;;;;;;;;;;5070311;28;20564;-60
2022/01/02 13:36:09;;;;;;;13.23;9.60;;;;;;;;;;5088262;28;20047;-60
2022/01/02 13:38:56;;;;;;;13.95;8.25;;;;;;;;;;5087729;28;20024;-61
2022/01/02 13:41:21;;;;;;;14.40;9.85;;;;;;;;;;5091239;28;20116;-60
2022/01/02 13:43:48;;;;;;;12.40;7.88;;;;;;;;;;5092039;28;20070;-60
2022/01/02 13:46:14;;;;;;;12.55;8.68;;;;;;;;;;5091511;28;20043;-61
2022/01/02 13:48:40;;;;;;;13.50;7.50;;;;;;;;;;5090937;28;20395;-63
2022/01/02 13:51:12;;;;;;;10.10;7.22;;;;;;;;;;5073905;28;20047;-61
2022/01/02 13:53:39;;;;;;;10.55;7.20;;;;;;;;;;5091896;28;20201;-61
2022/01/02 13:56:05;;;;;;;11.98;7.63;;;;;;;;;;5073615;28;20472;-60
2022/01/02 13:58:38;;;;;;;12.88;8.40;;;;;;;;;;5091841;28;20042;-62
2022/01/02 14:01:04;;;;;;;11.43;7.63;;;;;;;;;;5073438;28;20128;-61
2022/01/02 14:03:37;;;;;;;12.23;7.93;;;;;;;;;;5073075;28;20027;-60
2022/01/02 14:06:04;;;;;;;12.02;8.65;;;;;;;;;;5073364;28;20055;-61
2022/01/02 14:08:30;;;;;;;14.57;8.10;;;;;;;;;;5073000;28;20039;-60
2022/01/02 14:11:22;;;;;;;13.13;8.10;;;;;;;;;;5089173;28;20562;-62
2022/01/02 14:13:48;;;;;;;12.30;8.05;;;;;;;;;;5086505;28;20546;-60
2022/01/02 14:16:31;;;;;;;10.40;7.15;;;;;;;;;;5073415;28;20156;-60
2022/01/02 14:18:56;;;;;;;13.48;8.27;;;;;;;;;;5091368;28;20513;-62
2022/01/02 14:21:22;;;;;;;11.35;7.50;;;;;;;;;;5091634;28;20036;-60
2022/01/02 14:23:47;;;;;;;14.07;8.18;;;;;;;;;;5091074;28;20020;-61
2022/01/02 14:26:15;;;;;;;17.08;7.32;;;;;;;;;;5089355;28;20048;-61